Stad Amsterdam — PECA — position and weather

sailwx.info

Track history (hours):
 
Tides and Currents Weather Stations Pressure Air Temp Water Temp Dewpoint Dewpoint Depression Visibility Wind Speed Wind Dir Waves Ship Positions

Stad Amsterdam (Netherlands)

Ship's website: http://www.stadamsterdam.com/content/home/index.xml

Last reported at 2019-May-18 22:27 UTC. Time now 2019-May-20 02:24 UTC.
Position N 41°11' E 002°29'.

Length 76 m; beam 10 m.

Type: Sailing vessel. MMSI: 246494000.

Date/timePositionNaut miles runAvg speedWind from/ knotsBaromVisibWave heightAir tempDewpointWater temp
2019-May-18 22:27N 41°11' E 002°29'  
2019-May-15 00:56N 36°28' W 007°29'3 6.0
2019-May-15 00:30N 36°29' W 007°32'3 5.7
2019-May-15 00:00N 36°31' W 007°35'3 5.9
2019-May-14 23:29N 36°32' W 007°38'3 5.7
2019-May-14 23:00N 36°34' W 007°41'3 5.6
2019-May-14 22:30N 36°35' W 007°44'3 5.6
2019-May-14 21:56N 36°35' W 007°48'4 6.1
2019-May-14 21:19N 36°35' W 007°52'2 5.7
2019-May-14 20:55N 36°34' W 007°55'3 5.8
2019-May-14 20:28N 36°34' W 007°58'79 5.5
2019-May-14 06:13N 35°43' W 009°14'  
2019-May-11 18:52N 37°02' W 015°45'  
2019-May-09 06:28N 37°28' W 023°40'12 9.4
2019-May-09 05:11N 37°30' W 023°55'2 9.2
2019-May-09 05:00N 37°30' W 023°57'5 9.4
2019-May-09 04:30N 37°31' W 024°03'5 9.4
2019-May-09 04:00N 37°31' W 024°09'5 9.1
2019-May-09 03:30N 37°32' W 024°14'5 9.5
2019-May-09 03:00N 37°33' W 024°20'5 9.1
2019-May-09 02:30N 37°34' W 024°26'5 9.3
2019-May-09 02:00N 37°34' W 024°32'5 9.8
2019-May-09 01:30N 37°35' W 024°38'5 9.8
2019-May-09 01:00N 37°36' W 024°44'510.6
2019-May-09 00:30N 37°36' W 024°51'510.9
2019-May-09 00:00N 37°37' W 024°57'611.1
2019-May-08 23:30N 37°37' W 025°04'510.0
2019-May-08 23:00N 37°38' W 025°11'5 9.2
2019-May-08 22:31N 37°39' W 025°16'  
Track history (hours):
 
Tides and Currents Weather Stations Pressure Air Temp Water Temp Dewpoint Dewpoint Depression Visibility Wind Speed Wind Dir Waves Ship Positions

Stad Amsterdam (Netherlands)

Ship's website: http://www.stadamsterdam.com/content/home/index.xml

Last reported at 2019-May-18 22:27 UTC. Time now 2019-May-20 02:24 UTC.
Position N 41°11' E 002°29'.

Length 76 m; beam 10 m.

Type: Sailing vessel. MMSI: 246494000.

Date/timePositionNaut miles runAvg speedWind from/ knotsBaromVisibWave heightAir tempDewpointWater temp
2019-May-18 22:27N 41°11' E 002°29'  
2019-May-15 00:56N 36°28' W 007°29'3 6.0
2019-May-15 00:30N 36°29' W 007°32'3 5.7
2019-May-15 00:00N 36°31' W 007°35'3 5.9
2019-May-14 23:29N 36°32' W 007°38'3 5.7
2019-May-14 23:00N 36°34' W 007°41'3 5.6
2019-May-14 22:30N 36°35' W 007°44'3 5.6
2019-May-14 21:56N 36°35' W 007°48'4 6.1
2019-May-14 21:19N 36°35' W 007°52'2 5.7
2019-May-14 20:55N 36°34' W 007°55'3 5.8
2019-May-14 20:28N 36°34' W 007°58'79 5.5
2019-May-14 06:13N 35°43' W 009°14'  
2019-May-11 18:52N 37°02' W 015°45'  
2019-May-09 06:28N 37°28' W 023°40'12 9.4
2019-May-09 05:11N 37°30' W 023°55'2 9.2
2019-May-09 05:00N 37°30' W 023°57'5 9.4
2019-May-09 04:30N 37°31' W 024°03'5 9.4
2019-May-09 04:00N 37°31' W 024°09'5 9.1
2019-May-09 03:30N 37°32' W 024°14'5 9.5
2019-May-09 03:00N 37°33' W 024°20'5 9.1
2019-May-09 02:30N 37°34' W 024°26'5 9.3
2019-May-09 02:00N 37°34' W 024°32'5 9.8
2019-May-09 01:30N 37°35' W 024°38'5 9.8
2019-May-09 01:00N 37°36' W 024°44'510.6
2019-May-09 00:30N 37°36' W 024°51'510.9
2019-May-09 00:00N 37°37' W 024°57'611.1
2019-May-08 23:30N 37°37' W 025°04'510.0
2019-May-08 23:00N 37°38' W 025°11'5 9.2
2019-May-08 22:31N 37°39' W 025°16'  

Dump ship's entire track history